Onweer radar Meer informatie blitzortung!


Regen radar Meer informatie rain snow radar



METAR rapporten vliegvelden

   
EHVK - Volkel Rnlafb, Netherlands
Afstand tot: ZW 18 km
Gewijzigd: 21-09-2021 13:25
Gedeeltelijk bewolkt  
Gedeeltelijk bewolkt  
   Wind: varieert 1.9 km/h
Wind: varieert 1.9 km/h
Temperatuur: 17°C
Dauwpunt: 7°C
Vochtigheid: 52%
Barometer: 1030 hPa
Bewolking: Gedeeltelijk bewolkt
Zicht: meer dan 10 km
Bewolking: Gedeeltelijk bewolkt 36000 ft
EHVK 211125Z AUTO VRB01KT 9999 SCT360 17/07 Q1030 BLU NOSIG
EDLV - Niederrhein, Germany
Afstand tot: ZO 25 km
Gewijzigd: 21-09-2021 13:20
Helder  
Helder  
   Wind: varieert 5.6 km/h
Wind: varieert 5.6 km/h
Temperatuur: 17°C
Dauwpunt: 7°C
Vochtigheid: 52%
Barometer: 1030 hPa
Zicht: meer dan 10 km
Bewolking: Helder
EDLV 211120Z VRB03KT CAVOK 17/07 Q1030
EHDL - Deelen Rnlafb, Netherlands
Afstand tot: N 35 km
Gewijzigd: 21-09-2021 13:25
Helder  
Helder  
   Wind: varieert 7.4 km/h
Wind: varieert 7.4 km/h
Temperatuur: 17°C
Dauwpunt: 6°C
Vochtigheid: 49%
Barometer: 1030 hPa
Bewolking: Helder
Zicht: meer dan 10 km
Bewolking: Helder
EHDL 211125Z AUTO VRB04KT 9999 NCD 17/06 Q1030 BLU
EHEH - Eindhoven Rnlafb, Netherlands
Afstand tot: ZW 48 km
Gewijzigd: 21-09-2021 13:27
Bewolking  
Bewolking  
   Wind: varieert 5.6 km/h
Wind: varieert 5.6 km/h
Temperatuur: 18°C
Dauwpunt: 7°C
Vochtigheid: 49%
Barometer: 1030 hPa
Bewolking: Bewolking
Zicht: meer dan 10 km
Bewolking: Bewolking 35000 ft
EHEH 211127Z AUTO VRB03KT 9999 OVC350 18/07 Q1030 BLU NOSIG
EHGR - Gilze-Rijen Rnla, Netherlands
Afstand tot: WZW 70 km
Gewijzigd: 21-09-2021 13:25
Bewolking  
Bewolking  
   Wind: Zuiden 5.6 km/h
Wind: Zuiden 5.6 km/h
Temperatuur: 18°C
Dauwpunt: 6°C
Vochtigheid: 46%
Barometer: 1030 hPa
Bewolking: Bewolking
Zicht: meer dan 10 km
Bewolking: Bewolking 28000 ft
EHGR 211125Z AUTO 17003KT 060V230 9999 OVC280 18/06 Q1030 BLU NOSIG
EBBL - Kleine-Brogel(Ba, Belgium
Afstand tot: ZZW 71 km
Gewijzigd: 21-09-2021 13:25
Grotendeels bewolkt  
Grotendeels bewolkt  
   Wind: ONO 9.3 km/h
Wind: ONO 9.3 km/h
Temperatuur: 17°C
Dauwpunt: 5°C
Vochtigheid: 45%
Barometer: 1030 hPa
Bewolking: Grotendeels bewolkt
Zicht: meer dan 10 km
Bewolking: Licht bewolkt 4000 ft,
Grotendeels bewolkt 30000 ft
EBBL 211125Z 06005KT 9999 FEW040 BKN300 17/05 Q1030 BLU BLU

Script ontwikkeld door  Saratoga-weather.org Aangepast voor de template door  Weerstation Leuven

U vindt ons ook hier:

UK Metoffice

European Weather Network

WeatherCloud

Weather Underground

AWEKAS

Apparatuur in gebruik:

Weerstation
Davis Vantage Pro2 Plus

Weercomputer
ASUS WL-330N3G

Webleverancier
ongekend.nl

Davis Vantage Pro2 Plus

ASUS WL-330N3G

ongekend.nl